Aérodrome :
LOGIN :

S'inscrire | Disclaimer

   EN    FR    IT 

 










Légende :    VFR   VFR Marginal   IFR   IFR Intensif   IFR Très Intensif
Visi : 
Plafond : 
>= 8 km
>= 3000ft
5 à 8 km
1000 à 3000 ft
1500m à 5 km
500 à 1000 ft
800 à 1500m
200 à 500 ft
< 800m
< 200 ft
Symboles :   Orages  Brouillard  Fortes neiges  Fortes précipitations  Vent > 20 kt
SIGMETs :   Divers  Orages  Givrage  Turbulence  Onde Orograph.  Cendres Volcan.






- Altitude de l'aérodrome : 160 ft
- Code IATA : LRT


LFRH - Lorient Lann Bihoue

DERNIER METAR :
  • 150200Z AUTO 26015KT 9999 BKN032 BKN042 BKN048 10/06 Q1000 TEMPO 4500 SHRA BKN015CB BECMG 25015G25KT

METARs EXPIRÉS :
  • 150130Z AUTO 27012KT 9999 FEW031 09/06 Q1000 TEMPO 4500 SHRA BKN015CB BECMG 25015G25KT
  • 150100Z AUTO 27014KT 9999 FEW025 SCT058 BKN094 09/06 Q1000 TEMPO 4500 SHRA BKN015CB BECMG 25015G25KT
  • 150030Z AUTO 27019G29KT 9999 SCT025/// BKN037/// BKN072/// ///TCU 10/08 Q0999 TEMPO 26030G45KT 4500 SHRA BKN015CB
  • 150000Z AUTO 25021KT 9999 FEW020 BKN054 BKN068 11/08 Q0999 TEMPO 26030G45KT 4000 SHRA BKN010CB
  • 142330Z AUTO 26022KT 9000 -RADZ BKN015/// BKN021/// BKN031/// ///TCU 11/09 Q0998 TEMPO 26030G45KT 4000 SHRA BKN010CB

TAF TAF LFRH
Valide du 15 à 00h jusqu'au 16 à 00h UTC


142300Z 1500/1524 26020G35KT 9999 BKN020 OVC035
TEMPO 1500/1502 26030G45KT 4000 SHRA BKN010CB
BECMG 1502/1505 25015G25KT
PROB40
TEMPO 1502/1524 4500 SHRA BKN015CB



MET'MAP, la Météo Aéronautique d'un coup d'oeil ! - Copyright ORBIFLY Décembre 2007 - Disclaimer

ORBIFLY MET'MAP TEAM :

Programmation & Développement : Alexandra Zaïnal
Sur une idée originale de : Baudouin d'Aumeries
Assistance à la programmation : Marc-Olivier Méhu
Soutien technique & logistique : Manuel Goepfert

Contact : metmap@orbifly.com




SOURCES & CREDITS :

   NOAA